Time;durP1;ratioP1;P1;durP2;ratioP2;P2;SDS_P1;SDS_P2;PMS_P1;PMS_P2;Temp;Humidity;BMP_temperature;BMP_pressure;BME280_temperature;BME280_humidity;BME280_pressure;Samples;Min_cycle;Max_cycle;Signal;HPM_P1;HPM_P2
2022/07/14 00:00:40;;;;;;;1.23;0.85;;;24.10;53.80;24.20;100736.00;;;;5013486;27;118444;-64
2022/07/14 00:03:06;;;;;;;0.82;0.52;;;24.00;54.00;24.10;100729.00;;;;5013711;27;119501;-64
2022/07/14 00:05:31;;;;;;;0.95;0.82;;;24.00;54.80;24.10;100734.00;;;;5008316;27;87780;-64
2022/07/14 00:07:57;;;;;;;0.85;0.80;;;23.90;54.20;24.00;100731.00;;;;4994016;27;99283;-64
2022/07/14 00:10:23;;;;;;;1.08;0.90;;;23.80;54.40;23.90;100732.00;;;;4994143;28;116929;-64
2022/07/14 00:12:49;;;;;;;1.20;0.63;;;23.70;54.60;23.80;100722.00;;;;4993461;28;118572;-64
2022/07/14 00:15:14;;;;;;;1.05;0.70;;;23.60;54.70;23.70;100727.00;;;;4996094;27;87818;-64
2022/07/14 00:17:40;;;;;;;1.60;0.70;;;23.60;54.80;23.60;100723.00;;;;4995823;27;87338;-64
2022/07/14 00:20:07;;;;;;;0.50;0.50;;;23.50;54.90;23.50;100727.00;;;;4998793;28;88185;-64
2022/07/14 00:22:33;;;;;;;0.57;0.57;;;23.40;55.10;23.40;100720.00;;;;4998171;28;88488;-64
2022/07/14 00:24:59;;;;;;;2.28;0.60;;;23.30;55.30;23.40;100721.00;;;;4998253;27;109309;-64
2022/07/14 00:27:25;;;;;;;1.35;1.00;;;23.20;55.30;23.30;100727.00;;;;4998349;28;87745;-64
2022/07/14 00:29:50;;;;;;;1.20;0.90;;;23.20;55.50;23.20;100729.00;;;;4997979;27;105091;-64
2022/07/14 00:32:16;;;;;;;1.10;0.80;;;23.10;55.70;23.20;100725.00;;;;4997788;28;117470;-64
2022/07/14 00:34:42;;;;;;;0.70;0.60;;;23.00;55.90;23.10;100709.00;;;;4979227;28;104290;-63
2022/07/14 00:37:07;;;;;;;1.73;1.17;;;22.90;56.00;23.00;100727.00;;;;5013000;27;88008;-63
2022/07/14 00:39:54;;;;;;;0.88;0.77;;;22.80;56.10;22.90;100725.00;;;;5010069;27;99346;-64
2022/07/14 00:42:34;;;;;;;1.08;0.85;;;22.80;56.40;22.80;100717.00;;;;4998076;28;88592;-64
2022/07/14 00:45:07;;;;;;;1.70;1.15;;;22.70;56.70;22.70;100721.00;;;;4998751;28;87908;-63
2022/07/14 00:47:34;;;;;;;1.02;0.88;;;22.60;57.00;22.70;100721.00;;;;4997370;27;94314;-63
2022/07/14 00:50:00;;;;;;;1.33;1.23;;;22.50;57.10;22.60;100714.00;;;;5006460;27;105054;-63
2022/07/14 00:52:29;;;;;;;1.15;0.93;;;22.40;57.30;22.50;100727.00;;;;5017881;27;88226;-63
2022/07/14 00:54:55;;;;;;;1.00;1.00;;;22.40;57.50;22.40;100728.00;;;;5019119;27;87616;-63
2022/07/14 00:57:22;;;;;;;1.10;0.82;;;22.30;57.70;22.40;100739.00;;;;5018286;27;87597;-63
2022/07/14 00:59:48;;;;;;;1.20;0.80;;;22.20;57.90;22.30;100734.00;;;;5013018;27;88460;-63
2022/07/14 01:02:15;;;;;;;1.10;1.05;;;22.20;58.00;22.30;100738.00;;;;4997464;28;87999;-63
2022/07/14 01:04:41;;;;;;;1.42;1.02;;;22.20;58.20;22.20;100735.00;;;;4998162;28;88000;-63
2022/07/14 01:07:07;;;;;;;1.38;0.93;;;22.10;58.30;22.30;100737.00;;;;4997342;28;93308;-63
2022/07/14 01:09:33;;;;;;;0.93;0.77;;;22.10;58.50;22.30;100739.00;;;;4997178;27;115685;-63
2022/07/14 01:12:00;;;;;;;3.65;1.48;;;22.10;58.60;22.30;100739.00;;;;5017508;27;88780;-63
2022/07/14 01:14:26;;;;;;;1.25;1.10;;;22.10;58.70;22.30;100735.00;;;;5017880;27;88808;-62
2022/07/14 01:16:55;;;;;;;0.88;0.85;;;22.10;58.80;22.30;100745.00;;;;5016986;27;94632;-63
2022/07/14 01:19:23;;;;;;;1.30;1.02;;;22.10;59.10;22.30;100739.00;;;;5017801;27;89383;-63
2022/07/14 01:21:54;;;;;;;2.60;1.42;;;22.10;59.10;22.30;100745.00;;;;5000292;27;88986;-63
2022/07/14 01:24:21;;;;;;;0.80;0.75;;;22.20;59.30;22.30;100740.00;;;;4998225;28;87952;-63
2022/07/14 01:26:47;;;;;;;1.00;0.90;;;22.10;59.20;22.30;100734.00;;;;4997262;28;87773;-63
2022/07/14 01:29:13;;;;;;;0.82;0.82;;;22.10;59.30;22.30;100728.00;;;;4995889;27;88927;-63
2022/07/14 01:31:38;;;;;;;1.52;1.42;;;22.20;59.40;22.30;100732.00;;;;5009868;27;87180;-63
2022/07/14 01:34:04;;;;;;;1.70;0.93;;;22.10;59.40;22.30;100729.00;;;;5016542;27;111597;-63
2022/07/14 01:36:30;;;;;;;0.90;0.80;;;22.10;59.60;22.30;100731.00;;;;5017283;27;98883;-63
2022/07/14 01:38:56;;;;;;;2.20;1.45;;;22.10;59.60;22.20;100731.00;;;;5008301;27;117735;-63
2022/07/14 01:41:21;;;;;;;0.88;0.88;;;22.00;59.70;22.20;100742.00;;;;5003867;27;89674;-63
2022/07/14 01:43:48;;;;;;;2.58;0.60;;;22.00;59.80;22.20;100738.00;;;;4998967;27;87688;-63
2022/07/14 01:46:14;;;;;;;1.33;1.02;;;22.00;59.90;22.20;100729.00;;;;5017301;27;87684;-63
2022/07/14 01:48:39;;;;;;;3.95;1.20;;;22.00;60.10;22.20;100736.00;;;;5015931;27;117817;-63
2022/07/14 01:51:05;;;;;;;0.73;0.73;;;22.00;60.10;22.20;100733.00;;;;5014333;27;117700;-63
2022/07/14 01:53:31;;;;;;;1.25;0.93;;;22.00;60.20;22.20;100730.00;;;;4996237;28;100098;-63
2022/07/14 01:55:58;;;;;;;0.85;0.75;;;22.00;60.40;22.30;100730.00;;;;4996778;28;109065;-63
2022/07/14 01:58:24;;;;;;;1.00;0.88;;;22.30;60.80;22.30;100738.00;;;;4996172;28;88691;-63
2022/07/14 02:03:34;;;;;;;0.73;0.70;;;22.10;60.90;22.30;100736.00;;;;4996689;27;88481;-63
2022/07/14 02:06:01;;;;;;;0.73;0.73;;;22.20;61.20;22.20;100732.00;;;;4996377;28;98330;-63
2022/07/14 02:08:27;;;;;;;1.23;1.10;;;22.00;61.30;22.20;100737.00;;;;4996068;28;88053;-63
2022/07/14 02:13:37;;;;;;;1.55;1.30;;;22.00;61.60;22.20;100739.00;;;;5013735;27;87977;-63
2022/07/14 02:16:03;;;;;;;1.20;1.10;;;22.00;61.80;22.10;100744.00;;;;5016647;27;108774;-63
2022/07/14 02:18:29;;;;;;;2.25;1.20;;;21.90;62.00;22.10;100740.00;;;;4997687;27;88105;-63
2022/07/14 02:20:55;;;;;;;0.95;0.95;;;21.90;62.30;22.00;100750.00;;;;5016018;27;118123;-63
2022/07/14 02:23:23;;;;;;;0.68;0.57;;;21.80;62.40;22.00;100738.00;;;;5002751;27;107393;-63
2022/07/14 02:25:49;;;;;;;1.00;0.80;;;21.80;62.70;21.90;100740.00;;;;4997253;28;87655;-63
2022/07/14 02:28:15;;;;;;;0.65;0.63;;;21.70;62.70;21.90;100742.00;;;;4995945;28;89278;-63
2022/07/14 02:30:41;;;;;;;0.90;0.70;;;21.70;62.90;21.80;100736.00;;;;4996236;28;89466;-63
2022/07/14 02:33:07;;;;;;;1.42;0.82;;;21.60;63.20;21.70;100740.00;;;;5002073;27;110096;-63
2022/07/14 02:35:34;;;;;;;0.90;0.77;;;21.60;63.40;21.70;100741.00;;;;5016656;27;87695;-63
2022/07/14 02:38:00;;;;;;;3.42;1.40;;;21.50;63.60;21.60;100741.00;;;;5015679;27;104477;-63
2022/07/14 02:40:25;;;;;;;1.20;1.10;;;21.50;64.00;21.50;100736.00;;;;5000170;27;87716;-64
2022/07/14 02:42:52;;;;;;;1.48;1.10;;;21.40;64.10;21.50;100734.00;;;;4995685;28;95121;-63
2022/07/14 02:45:18;;;;;;;1.35;0.98;;;21.30;64.30;21.40;100744.00;;;;4995066;28;86966;-63
2022/07/14 02:47:44;;;;;;;1.50;1.15;;;21.30;64.70;21.30;100739.00;;;;5006323;27;105522;-63
2022/07/14 02:50:10;;;;;;;1.13;1.00;;;21.20;64.90;21.30;100747.00;;;;5014110;27;116495;-63
2022/07/14 02:52:37;;;;;;;1.30;1.20;;;21.10;65.80;21.30;100747.00;;;;5015069;27;110178;-63
2022/07/14 02:55:03;;;;;;;1.65;1.05;;;21.10;65.50;21.20;100747.00;;;;5016539;27;89344;-63
2022/07/14 02:57:29;;;;;;;1.25;0.80;;;21.10;65.80;21.20;100750.00;;;;5015901;27;89144;-63
2022/07/14 02:59:55;;;;;;;1.33;1.23;;;21.10;66.10;21.20;100751.00;;;;5014428;27;88023;-63
2022/07/14 03:02:21;;;;;;;1.90;1.10;;;21.00;66.40;21.20;100753.00;;;;5016037;27;87830;-63
2022/07/14 03:04:47;;;;;;;2.05;0.70;;;21.00;66.60;21.10;100753.00;;;;5016795;27;87896;-63
2022/07/14 03:07:13;;;;;;;0.85;0.85;;;21.00;66.80;21.10;100753.00;;;;4994826;27;89049;-63
2022/07/14 03:09:39;;;;;;;0.98;0.93;;;21.00;67.00;21.10;100761.00;;;;4995471;28;104996;-63
2022/07/14 03:12:05;;;;;;;1.73;1.10;;;21.00;67.20;21.10;100763.00;;;;4998087;28;96124;-63
2022/07/14 03:14:30;;;;;;;1.08;0.80;;;21.00;67.40;21.10;100758.00;;;;5021412;27;87744;-63
2022/07/14 03:16:56;;;;;;;1.00;0.98;;;20.90;67.60;21.10;100763.00;;;;5013737;27;119875;-63
2022/07/14 03:19:22;;;;;;;1.08;0.95;;;20.90;68.00;21.10;100768.00;;;;5014368;27;117684;-63
2022/07/14 03:21:47;;;;;;;0.80;0.80;;;20.90;68.10;21.10;100777.00;;;;4997568;27;111362;-63
2022/07/14 03:24:13;;;;;;;3.28;1.08;;;20.90;68.50;21.10;100772.00;;;;5003321;27;108978;-63
2022/07/14 03:26:39;;;;;;;1.27;1.00;;;20.90;68.70;21.10;100764.00;;;;5014878;27;93130;-63
2022/07/14 03:29:07;;;;;;;1.08;0.98;;;20.90;68.90;21.00;100771.00;;;;5015201;27;91111;-63
2022/07/14 03:31:33;;;;;;;1.17;1.13;;;20.90;69.20;21.00;100775.00;;;;5015268;27;87582;-63
2022/07/14 03:33:59;;;;;;;0.70;0.70;;;20.80;69.20;21.00;100768.00;;;;5012139;27;87124;-63
2022/07/14 03:36:25;;;;;;;2.20;0.98;;;20.80;69.60;20.90;100772.00;;;;4995027;28;87944;-63
2022/07/14 03:38:50;;;;;;;0.95;0.90;;;20.80;69.90;20.90;100771.00;;;;4995330;28;89645;-63
2022/07/14 03:41:16;;;;;;;1.65;1.55;;;20.70;70.10;20.90;100773.00;;;;4994281;27;110850;-63
2022/07/14 03:43:43;;;;;;;1.55;0.75;;;20.70;70.50;20.90;100778.00;;;;4995731;28;87943;-63
2022/07/14 03:46:09;;;;;;;1.95;0.88;;;20.70;70.70;20.90;100776.00;;;;5014451;27;88090;-62
2022/07/14 03:48:35;;;;;;;2.15;1.45;;;20.70;71.00;20.90;100782.00;;;;5014602;27;87898;-62
2022/07/14 03:51:01;;;;;;;1.48;1.10;;;20.70;71.40;20.90;100776.00;;;;5014786;27;88154;-62
2022/07/14 03:53:29;;;;;;;1.73;1.13;;;20.70;71.60;20.90;100772.00;;;;5014430;27;87839;-62
2022/07/14 03:55:56;;;;;;;0.95;0.70;;;20.70;71.90;20.90;100780.00;;;;5000766;27;87699;-62
2022/07/14 03:58:22;;;;;;;1.38;1.10;;;20.70;72.10;20.90;100778.00;;;;4994730;28;88850;-63
2022/07/14 04:00:47;;;;;;;1.30;0.80;;;20.80;72.40;20.90;100793.00;;;;4994581;28;110806;-63
2022/07/14 04:03:13;;;;;;;1.88;1.40;;;20.70;72.50;20.90;100775.00;;;;4994004;28;108001;-62
2022/07/14 04:05:39;;;;;;;2.42;0.95;;;20.70;72.70;20.90;100790.00;;;;4994141;27;118825;-63
2022/07/14 04:08:05;;;;;;;1.15;0.80;;;20.70;73.00;20.90;100790.00;;;;4994726;28;94231;-61
2022/07/14 04:10:30;;;;;;;1.20;1.10;;;20.70;73.40;20.90;100792.00;;;;4994166;28;111468;-63
2022/07/14 04:12:56;;;;;;;0.70;0.70;;;20.70;73.60;21.00;100798.00;;;;4994134;28;108932;-63
2022/07/14 04:15:23;;;;;;;1.17;1.02;;;20.80;73.80;21.00;100793.00;;;;4999160;27;87684;-62
2022/07/14 04:17:49;;;;;;;1.52;1.30;;;20.80;74.00;21.00;100795.00;;;;5014345;27;87692;-63
2022/07/14 04:20:16;;;;;;;1.42;1.13;;;20.80;74.00;21.00;100806.00;;;;5015104;27;99450;-63
2022/07/14 04:22:42;;;;;;;0.80;0.70;;;20.80;74.10;21.00;100803.00;;;;4997335;27;86917;-63
2022/07/14 04:25:13;;;;;;;1.48;1.00;;;20.80;74.30;21.00;100809.00;;;;4994188;27;116333;-63
2022/07/14 04:27:39;;;;;;;1.48;1.17;;;20.80;74.50;21.00;100820.00;;;;4994973;27;89189;-63
2022/07/14 04:30:07;;;;;;;1.42;1.00;;;20.90;74.60;21.10;100813.00;;;;4994407;28;88536;-63
2022/07/14 04:32:33;;;;;;;1.27;0.77;;;20.80;74.90;21.00;100819.00;;;;4992620;28;88086;-63
2022/07/14 04:34:58;;;;;;;0.55;0.55;;;20.80;75.00;21.00;100815.00;;;;4994141;28;93890;-62
2022/07/14 04:37:24;;;;;;;1.35;0.90;;;20.90;76.10;21.00;100823.00;;;;4994810;27;116648;-62
2022/07/14 04:39:50;;;;;;;1.25;0.90;;;20.80;75.40;21.00;100816.00;;;;4995165;28;87647;-63
2022/07/14 04:42:16;;;;;;;1.15;1.05;;;20.80;75.60;21.00;100819.00;;;;4994032;28;96613;-63
2022/07/14 04:44:41;;;;;;;1.65;0.57;;;20.80;75.90;21.00;100817.00;;;;4995277;27;105655;-63
2022/07/14 04:47:07;;;;;;;1.20;0.90;;;20.80;76.00;21.00;100803.00;;;;4994802;27;88096;-62
2022/07/14 04:52:18;;;;;;;1.38;0.98;;;20.80;76.40;21.00;100819.00;;;;4976478;28;87596;-62
2022/07/14 04:54:45;;;;;;;1.80;1.08;;;20.80;76.70;21.00;100818.00;;;;4974143;28;91593;-63
2022/07/14 04:57:11;;;;;;;1.13;1.00;;;20.80;76.80;21.10;100809.00;;;;4991539;27;89485;-63
2022/07/14 04:59:37;;;;;;;1.33;0.85;;;20.90;77.00;21.20;100811.00;;;;4990764;28;87820;-62
2022/07/14 05:02:04;;;;;;;2.70;1.10;;;21.10;77.00;21.30;100820.00;;;;4990491;28;87404;-63
2022/07/14 05:04:30;;;;;;;1.05;0.90;;;21.00;76.90;21.40;100827.00;;;;4989387;27;89015;-62
2022/07/14 05:06:57;;;;;;;2.67;1.20;;;21.20;76.90;21.60;100825.00;;;;4996511;27;87990;-64
2022/07/14 05:09:31;;;;;;;1.15;0.90;;;21.30;76.70;21.70;100825.00;;;;5018077;27;87962;-63
2022/07/14 05:11:56;;;;;;;2.72;0.80;;;21.40;76.80;21.80;100818.00;;;;5018598;27;87026;-63
2022/07/14 05:14:22;;;;;;;1.35;1.17;;;21.50;76.70;22.00;100812.00;;;;5007110;27;117657;-64
2022/07/14 05:16:50;;;;;;;3.60;1.20;;;21.70;76.30;22.10;100812.00;;;;4997002;28;88346;-63
2022/07/14 05:19:17;;;;;;;0.82;0.75;;;21.80;76.10;22.30;100818.00;;;;4997503;28;88659;-63
2022/07/14 05:21:44;;;;;;;1.02;0.82;;;22.10;75.80;22.40;100819.00;;;;4998439;27;88230;-63
2022/07/14 05:24:11;;;;;;;0.60;0.60;;;22.10;75.30;22.50;100818.00;;;;4997542;27;88962;-63
2022/07/14 05:26:37;;;;;;;2.72;1.55;;;22.20;74.90;22.60;100834.00;;;;4978753;28;88097;-63
2022/07/14 05:29:03;;;;;;;2.20;0.80;;;22.30;74.60;22.70;100824.00;;;;4997053;28;87582;-63
2022/07/14 05:31:29;;;;;;;0.80;0.70;;;22.40;74.30;22.80;100835.00;;;;4997289;28;90308;-63
2022/07/14 05:33:57;;;;;;;1.17;1.08;;;22.50;73.90;22.90;100844.00;;;;5001532;27;117617;-64
2022/07/14 05:36:24;;;;;;;0.77;0.63;;;22.60;73.60;22.90;100821.00;;;;5016954;27;87674;-64
2022/07/14 05:38:50;;;;;;;0.93;0.85;;;22.70;73.40;23.00;100823.00;;;;5018003;27;88142;-64
2022/07/14 05:41:17;;;;;;;0.82;0.70;;;22.70;73.10;23.00;100825.00;;;;5017211;27;87724;-62
2022/07/14 05:43:43;;;;;;;1.10;0.73;;;22.70;72.90;23.10;100827.00;;;;4996755;27;91534;-63
2022/07/14 05:46:10;;;;;;;9.70;1.10;;;22.80;73.00;23.00;100830.00;;;;5016426;27;118056;-63
2022/07/14 05:48:39;;;;;;;2.33;0.93;;;22.80;72.90;22.90;100835.00;;;;5016193;27;87725;-64
2022/07/14 05:51:16;;;;;;;2.28;1.52;;;22.70;72.50;22.90;100839.00;;;;5017220;27;87790;-64
2022/07/14 05:53:44;;;;;;;0.50;0.50;;;22.70;72.50;22.80;100854.00;;;;5013209;27;102339;-63
2022/07/14 05:56:11;;;;;;;3.50;1.05;;;22.60;72.50;22.80;100850.00;;;;4998062;27;88394;-63
2022/07/14 05:58:39;;;;;;;0.82;0.82;;;22.60;72.70;22.80;100844.00;;;;4998563;27;87817;-63
2022/07/14 06:01:07;;;;;;;1.00;1.00;;;22.50;72.70;22.70;100851.00;;;;5017650;27;87330;-63
2022/07/14 06:03:33;;;;;;;0.85;0.70;;;22.50;72.80;22.70;100843.00;;;;5015257;27;89074;-63
2022/07/14 06:06:03;;;;;;;1.27;0.60;;;22.50;73.00;22.60;100838.00;;;;5007831;27;116747;-62
2022/07/14 06:08:29;;;;;;;1.33;1.10;;;22.40;73.00;22.60;100838.00;;;;4995864;28;88560;-63
2022/07/14 06:10:58;;;;;;;0.80;0.80;;;22.40;73.20;22.60;100835.00;;;;4996296;28;108851;-64
2022/07/14 06:13:28;;;;;;;1.42;0.93;;;22.40;73.40;22.70;100846.00;;;;4997274;27;88146;-63
2022/07/14 06:15:58;;;;;;;1.77;1.23;;;22.40;73.40;22.80;100836.00;;;;4976470;28;88868;-64
2022/07/14 06:18:24;;;;;;;2.35;0.75;;;22.50;73.40;22.90;100844.00;;;;4977138;28;87496;-64
2022/07/14 06:20:51;;;;;;;1.05;0.70;;;22.60;73.10;23.00;100836.00;;;;4975752;28;106152;-64
2022/07/14 06:23:17;;;;;;;1.73;0.88;;;22.70;72.80;23.10;100830.00;;;;4982776;28;88821;-63
2022/07/14 06:25:42;;;;;;;1.00;0.85;;;22.80;72.40;23.10;100835.00;;;;4997028;27;109604;-64
2022/07/14 06:28:08;;;;;;;0.80;0.70;;;22.80;72.20;23.20;100837.00;;;;4995462;28;89607;-63
2022/07/14 06:30:35;;;;;;;1.13;0.98;;;22.90;72.00;23.40;100843.00;;;;5015321;27;87611;-64
2022/07/14 06:33:01;;;;;;;1.05;0.82;;;23.10;71.80;23.60;100834.00;;;;5016020;27;88782;-64
2022/07/14 06:35:27;;;;;;;1.38;0.90;;;23.20;71.50;23.80;100838.00;;;;5014454;27;87968;-63
2022/07/14 06:37:54;;;;;;;1.50;1.10;;;23.40;71.20;24.00;100838.00;;;;5016103;27;87597;-64
2022/07/14 06:40:20;;;;;;;1.05;0.68;;;23.70;70.60;24.30;100837.00;;;;5016715;27;97501;-64
2022/07/14 06:42:47;;;;;;;0.73;0.73;;;23.90;70.10;24.50;100845.00;;;;5015471;27;107056;-63
2022/07/14 06:45:13;;;;;;;1.00;0.90;;;24.10;69.50;24.70;100850.00;;;;5008473;27;88646;-65
2022/07/14 06:47:39;;;;;;;0.80;0.80;;;24.30;68.50;24.80;100857.00;;;;5016354;27;87606;-64
2022/07/14 06:50:06;;;;;;;5.55;0.93;;;24.50;67.80;24.80;100856.00;;;;5016511;27;106537;-63
2022/07/14 06:52:32;;;;;;;3.58;1.20;;;24.60;67.00;24.80;100868.00;;;;5015868;27;89288;-64
2022/07/14 06:55:00;;;;;;;2.03;1.10;;;24.50;66.50;24.70;100861.00;;;;5002599;27;87723;-63
2022/07/14 06:57:25;;;;;;;0.80;0.80;;;24.50;66.50;24.70;100859.00;;;;4995131;28;88735;-64
2022/07/14 06:59:51;;;;;;;0.77;0.70;;;24.40;66.30;24.70;100853.00;;;;4996031;28;87674;-64
2022/07/14 07:02:19;;;;;;;0.90;0.85;;;24.40;66.40;24.70;100849.00;;;;4995324;28;116967;-63
2022/07/14 07:04:47;;;;;;;0.80;0.80;;;24.40;66.20;24.70;100857.00;;;;5028178;27;87828;-63
2022/07/14 07:07:13;;;;;;;1.35;0.98;;;24.40;66.10;24.70;100853.00;;;;4996922;27;87905;-63
2022/07/14 07:09:38;;;;;;;0.90;0.85;;;24.50;66.30;24.80;100850.00;;;;4994402;28;97922;-64
2022/07/14 07:12:05;;;;;;;6.45;1.05;;;24.40;66.10;24.80;100854.00;;;;4994805;28;117763;-63
2022/07/14 07:14:30;;;;;;;2.58;0.88;;;24.60;65.20;24.70;100853.00;;;;4996565;27;88684;-64
2022/07/14 07:16:56;;;;;;;1.45;0.82;;;24.50;65.00;24.70;100863.00;;;;4994711;28;110675;-64
2022/07/14 07:19:22;;;;;;;0.60;0.60;;;24.50;64.00;24.60;100856.00;;;;4995759;28;87780;-64
2022/07/14 07:21:48;;;;;;;0.60;0.55;;;24.40;63.60;24.50;100859.00;;;;4994338;28;110572;-64
2022/07/14 07:24:14;;;;;;;5.45;1.30;;;24.20;62.50;24.30;100856.00;;;;4995848;28;89468;-64
2022/07/14 07:26:41;;;;;;;0.32;0.32;;;24.10;62.30;24.20;100850.00;;;;5004074;27;97776;-64
2022/07/14 07:29:08;;;;;;;2.17;1.10;;;24.00;62.80;24.10;100846.00;;;;5015333;27;87930;-63
2022/07/14 07:31:35;;;;;;;0.93;0.50;;;23.90;63.00;24.20;100839.00;;;;5015676;27;88906;-64
2022/07/14 07:34:01;;;;;;;3.20;0.57;;;23.90;63.30;24.20;100849.00;;;;5015550;27;87892;-64
2022/07/14 07:36:27;;;;;;;3.83;0.77;;;24.00;63.30;24.30;100835.00;;;;5009633;27;87639;-64
2022/07/14 07:38:52;;;;;;;3.08;0.77;;;24.00;63.20;24.30;100838.00;;;;4994884;28;107566;-64
2022/07/14 07:41:18;;;;;;;0.70;0.70;;;24.00;63.20;24.20;100834.00;;;;4975903;28;117883;-63
2022/07/14 07:43:44;;;;;;;0.82;0.73;;;24.00;63.20;24.10;100828.00;;;;4975112;28;116835;-63
2022/07/14 07:46:10;;;;;;;1.00;0.68;;;23.90;63.40;24.00;100818.00;;;;4994609;27;109356;-62
2022/07/14 07:48:35;;;;;;;2.95;0.88;;;23.80;63.60;24.00;100818.00;;;;5015039;27;103037;-63
2022/07/14 07:51:02;;;;;;;1.60;1.00;;;23.80;63.70;24.00;100819.00;;;;5014885;27;94982;-63
2022/07/14 07:53:27;;;;;;;0.82;0.60;;;23.80;63.60;24.10;100815.00;;;;5014612;27;87903;-64
2022/07/14 07:55:53;;;;;;;1.55;0.40;;;23.80;63.40;24.00;100820.00;;;;5013999;27;87627;-63
2022/07/14 07:58:20;;;;;;;1.15;1.02;;;23.80;63.30;24.10;100827.00;;;;5013521;27;87886;-63
2022/07/14 08:00:47;;;;;;;1.13;0.65;;;23.80;63.40;24.10;100819.00;;;;5015656;27;87783;-64
2022/07/14 08:03:13;;;;;;;0.75;0.75;;;24.00;63.60;24.20;100825.00;;;;5015924;27;87712;-64
2022/07/14 08:05:43;;;;;;;1.27;0.63;;;23.80;63.60;24.30;100818.00;;;;5009334;27;87916;-64
2022/07/14 08:08:08;;;;;;;2.90;0.73;;;24.00;63.60;24.40;100816.00;;;;5004957;27;87656;-64
2022/07/14 08:10:38;;;;;;;1.42;0.52;;;24.00;63.50;24.40;100813.00;;;;5014069;27;109175;-63
2022/07/14 08:13:05;;;;;;;0.60;0.60;;;24.10;63.20;24.40;100814.00;;;;4996034;27;88365;-63
2022/07/14 08:15:30;;;;;;;0.45;0.40;;;24.10;62.90;24.40;100820.00;;;;4995781;27;96619;-64
2022/07/14 08:17:56;;;;;;;0.80;0.57;;;24.10;62.70;24.40;100832.00;;;;4993538;28;106176;-63
2022/07/14 08:20:22;;;;;;;0.50;0.50;;;24.10;62.70;24.50;100825.00;;;;4992868;28;117683;-64
2022/07/14 08:22:48;;;;;;;0.65;0.63;;;24.20;62.80;24.50;100829.00;;;;4993031;28;106669;-64
2022/07/14 08:25:13;;;;;;;0.95;0.75;;;24.20;62.50;24.50;100824.00;;;;5009173;27;110086;-64
2022/07/14 08:27:40;;;;;;;0.85;0.85;;;24.20;62.50;24.60;100812.00;;;;5015345;27;86782;-64
2022/07/14 08:30:07;;;;;;;0.60;0.60;;;24.30;62.70;24.70;100812.00;;;;5015117;27;88217;-63
2022/07/14 08:32:41;;;;;;;0.80;0.80;;;24.30;62.60;24.70;100819.00;;;;5015046;27;87938;-64
2022/07/14 08:35:11;;;;;;;0.90;0.70;;;24.40;62.20;24.60;100811.00;;;;4994771;27;88934;-63
2022/07/14 08:37:37;;;;;;;1.00;0.90;;;24.30;61.90;24.60;100815.00;;;;4982761;28;88254;-64
2022/07/14 08:40:08;;;;;;;2.20;0.70;;;24.30;62.00;24.60;100808.00;;;;5009746;27;88862;-63
2022/07/14 08:42:36;;;;;;;1.00;0.50;;;24.30;62.20;24.60;100814.00;;;;4998873;27;91127;-63
2022/07/14 08:45:09;;;;;;;0.82;0.82;;;24.30;62.30;24.60;100803.00;;;;5003510;27;87603;-63
2022/07/14 08:47:36;;;;;;;2.05;0.75;;;24.30;62.40;24.70;100805.00;;;;4998546;28;87837;-63
2022/07/14 08:50:12;;;;;;;0.40;0.40;;;24.40;62.50;24.80;100801.00;;;;4995168;27;89396;-62
2022/07/14 08:52:38;;;;;;;1.23;0.82;;;24.40;62.10;24.90;100796.00;;;;4986801;28;88589;-63
2022/07/14 08:55:07;;;;;;;3.88;0.60;;;24.60;62.00;25.10;100789.00;;;;5006480;27;87555;-63
2022/07/14 08:57:35;;;;;;;0.75;0.65;;;24.70;61.80;25.20;100788.00;;;;4986012;28;88014;-63
2022/07/14 09:00:02;;;;;;;0.73;0.68;;;24.80;61.20;25.20;100788.00;;;;4997636;28;89567;-64
2022/07/14 09:02:28;;;;;;;4.03;0.70;;;24.90;60.70;25.20;100782.00;;;;4977515;28;91328;-63
2022/07/14 09:04:54;;;;;;;0.90;0.60;;;24.90;60.20;25.10;100765.00;;;;4996952;28;87730;-64
2022/07/14 09:07:36;;;;;;;1.42;0.70;;;24.80;59.80;25.00;100768.00;;;;4996866;28;87880;-64
2022/07/14 09:10:12;;;;;;;0.73;0.50;;;24.80;59.90;25.10;100766.00;;;;4996905;28;89308;-63
2022/07/14 09:12:39;;;;;;;0.52;0.40;;;24.80;59.80;25.10;100762.00;;;;4997743;28;88062;-63
2022/07/14 09:18:04;;;;;;;0.70;0.35;;;24.80;59.40;25.20;100758.00;;;;4997813;28;87033;-63
2022/07/14 09:20:32;;;;;;;1.63;0.90;;;24.90;59.40;25.40;100766.00;;;;4995904;28;87970;-64
2022/07/14 09:23:01;;;;;;;0.43;0.40;;;25.00;59.30;25.70;100758.00;;;;4996126;28;87981;-64
2022/07/14 09:25:29;;;;;;;1.02;0.93;;;25.30;58.90;25.90;100762.00;;;;4997468;28;88718;-63
2022/07/14 09:27:56;;;;;;;0.55;0.47;;;25.50;57.50;26.00;100767.00;;;;4996914;28;87813;-62
2022/07/14 09:30:23;;;;;;;0.73;0.70;;;25.60;57.00;26.10;100772.00;;;;4997394;28;93531;-63
2022/07/14 09:32:52;;;;;;;0.65;0.50;;;25.60;56.50;26.10;100755.00;;;;4997167;28;87800;-62
2022/07/14 09:35:21;;;;;;;0.75;0.40;;;25.70;56.20;26.10;100756.00;;;;4997700;28;87615;-63
2022/07/14 09:37:49;;;;;;;0.20;0.20;;;25.80;55.00;25.90;100749.00;;;;4997848;28;87661;-62
2022/07/14 09:40:31;;;;;;;0.50;0.40;;;25.60;55.20;25.70;100757.00;;;;4996435;28;88639;-63
2022/07/14 09:42:59;;;;;;;1.08;1.00;;;25.50;55.60;25.90;100754.00;;;;4996527;28;108787;-63
2022/07/14 09:45:29;;;;;;;1.52;0.38;;;25.50;56.10;26.10;100757.00;;;;4996904;28;87588;-63
2022/07/14 09:48:19;;;;;;;0.65;0.57;;;25.70;56.10;26.40;100776.00;;;;4997132;28;87952;-63
2022/07/14 09:51:00;;;;;;;1.08;0.70;;;25.90;55.70;26.40;100763.00;;;;4994709;27;88885;-64
2022/07/14 09:53:34;;;;;;;0.60;0.40;;;26.10;55.40;26.50;100774.00;;;;4978311;28;87993;-64
2022/07/14 09:56:08;;;;;;;1.55;0.80;;;26.10;55.40;26.60;100774.00;;;;4996549;28;101009;-64
2022/07/14 09:58:44;;;;;;;0.43;0.43;;;26.20;55.40;26.70;100769.00;;;;4995334;28;87969;-64
2022/07/14 10:01:15;;;;;;;1.08;0.68;;;26.30;55.30;26.70;100757.00;;;;4996298;28;88390;-63
2022/07/14 10:03:47;;;;;;;0.63;0.63;;;26.40;55.20;26.80;100746.00;;;;5007060;27;87757;-62
2022/07/14 10:06:14;;;;;;;0.73;0.73;;;26.40;54.90;26.90;100736.00;;;;4978423;28;87657;-63
2022/07/14 10:08:43;;;;;;;1.63;0.45;;;26.50;54.80;27.10;100756.00;;;;5011812;27;86719;-64
2022/07/14 10:11:13;;;;;;;0.77;0.47;;;26.60;54.80;27.40;100738.00;;;;4997230;28;87778;-64
2022/07/14 10:13:40;;;;;;;1.95;0.30;;;26.90;54.30;27.80;100739.00;;;;4996106;28;87892;-63
2022/07/14 10:16:06;;;;;;;0.38;0.38;;;27.20;53.90;28.20;100736.00;;;;4994826;28;111351;-62
2022/07/14 10:18:33;;;;;;;0.38;0.38;;;27.60;52.20;28.20;100735.00;;;;4996328;28;99053;-63
2022/07/14 10:21:01;;;;;;;0.80;0.55;;;27.70;50.10;28.10;100733.00;;;;4977804;28;88118;-63
2022/07/14 10:23:29;;;;;;;0.90;0.77;;;27.70;50.00;27.80;100729.00;;;;4996388;28;88179;-62
2022/07/14 10:25:59;;;;;;;0.40;0.40;;;27.50;50.00;27.80;100745.00;;;;4995538;28;92911;-62
2022/07/14 10:28:26;;;;;;;1.55;0.60;;;27.50;50.20;27.80;100744.00;;;;4981549;28;87707;-62
2022/07/14 10:31:49;;;;;;;0.50;0.40;;;27.40;49.80;27.80;100739.00;;;;4976627;28;87785;-62
2022/07/14 10:34:45;;;;;;;2.05;0.43;;;27.40;49.90;27.80;100743.00;;;;4932427;28;88532;-63
2022/07/14 10:37:23;;;;;;;1.83;0.63;;;27.40;50.00;27.80;100742.00;;;;4916841;28;88075;-62
2022/07/14 10:40:03;;;;;;;0.30;0.30;;;27.40;50.10;27.90;100745.00;;;;4933960;28;98656;-63
2022/07/14 10:42:57;;;;;;;1.13;0.35;;;27.50;50.50;28.10;100735.00;;;;4975592;28;88995;-63
2022/07/14 10:45:25;;;;;;;1.50;0.32;;;27.60;50.50;28.50;100733.00;;;;4973807;28;90984;-63
2022/07/14 10:47:53;;;;;;;0.30;0.30;;;28.00;50.50;28.90;100739.00;;;;4973812;28;88044;-63
2022/07/14 10:50:21;;;;;;;0.40;0.40;;;28.30;50.10;29.20;100722.00;;;;4976418;28;87578;-63
2022/07/14 10:53:05;;;;;;;0.30;0.30;;;28.60;48.60;29.20;100718.00;;;;4956657;28;87760;-63
2022/07/14 10:55:30;;;;;;;0.70;0.70;;;28.60;48.30;29.50;100726.00;;;;4976025;28;87710;-63
2022/07/14 10:57:59;;;;;;;1.85;0.95;;;28.90;48.50;29.80;100727.00;;;;4956337;28;109831;-64